Time;durP1;ratioP1;P1;durP2;ratioP2;P2;SDS_P1;SDS_P2;PMS_P1;PMS_P2;Temp;Humidity;BMP_temperature;BMP_pressure;BME280_temperature;BME280_humidity;BME280_pressure;Samples;Min_cycle;Max_cycle;Signal;HPM_P1;HPM_P2
2021/12/10 00:02:34;;;;;;;33.10;16.30;;;4.10;58.20;;;2.17;65.05;100029.94;8396735;28;20132;-80
2021/12/10 00:07:04;;;;;;;34.92;17.42;;;4.10;58.20;;;2.26;65.16;100043.41;8387002;28;20115;-80
2021/12/10 00:11:35;;;;;;;29.90;14.68;;;4.10;58.20;;;2.26;64.86;100045.97;8414872;28;20123;-80
2021/12/10 00:15:57;;;;;;;36.80;16.30;;;4.10;58.20;;;2.14;64.93;100042.06;8376731;28;20138;-80
2021/12/10 00:20:23;;;;;;;37.58;16.58;;;4.10;58.10;;;2.15;65.20;100036.84;8377561;28;20176;-80
2021/12/10 00:24:47;;;;;;;30.25;15.15;;;4.00;58.10;;;2.16;65.11;100032.53;8384680;28;20491;-81
2021/12/10 00:29:10;;;;;;;32.67;15.73;;;4.00;58.20;;;2.18;64.75;100026.44;8398314;28;20055;-80
2021/12/10 00:33:40;;;;;;;34.05;16.90;;;4.00;58.20;;;2.16;65.21;100023.09;8378072;28;20564;-81
2021/12/10 00:38:03;;;;;;;37.67;15.95;;;3.90;58.20;;;2.13;65.04;100012.91;8377453;28;20119;-79
2021/12/10 00:42:33;;;;;;;34.75;16.02;;;4.00;58.20;;;2.11;65.13;100006.13;8379231;28;20131;-81
2021/12/10 00:46:55;;;;;;;32.40;16.10;;;3.90;57.90;;;2.18;64.72;100013.56;8356437;28;20123;-80
2021/12/10 00:51:17;;;;;;;30.27;14.52;;;4.00;58.20;;;2.10;64.94;100006.97;8399137;28;20407;-80
2021/12/10 00:55:39;;;;;;;31.00;15.90;;;4.00;58.20;;;2.14;64.80;100000.88;8388622;28;20120;-81
2021/12/10 01:00:04;;;;;;;39.58;17.65;;;4.00;58.20;;;2.16;64.86;100007.66;8400276;28;20129;-80
2021/12/10 01:04:35;;;;;;;35.40;16.63;;;4.00;58.20;;;2.12;65.23;99989.75;8400199;28;20143;-80
2021/12/10 01:09:07;;;;;;;31.08;14.48;;;3.80;58.20;;;2.09;64.92;99974.41;8401799;28;20127;-80
2021/12/10 01:13:33;;;;;;;31.63;15.85;;;4.00;58.30;;;2.07;64.84;99966.72;8377285;28;20123;-80
2021/12/10 01:27:42;;;;;;;31.45;15.05;;;3.90;58.30;;;2.06;65.04;99931.56;8383497;28;20131;-80
2021/12/10 01:32:06;;;;;;;;;;;3.90;58.40;;;2.16;64.81;99935.53;8378380;28;20043;-80
2021/12/10 01:36:28;;;;;;;30.65;14.63;;;4.00;58.50;;;2.08;65.13;99919.50;8371620;28;20003;-80
2021/12/10 01:40:55;;;;;;;29.63;14.93;;;4.00;58.40;;;2.15;65.19;99928.69;8385028;28;20121;-80
2021/12/10 01:45:26;;;;;;;30.60;14.82;;;3.90;58.40;;;2.17;65.34;99920.91;8377490;28;20595;-80
2021/12/10 01:49:49;;;;;;;32.78;16.42;;;4.00;58.50;;;2.17;64.97;99918.34;8395780;28;20028;-80
2021/12/10 01:54:19;;;;;;;34.15;17.02;;;4.10;58.40;;;2.18;65.08;99904.56;8389702;28;20115;-82
2021/12/10 01:58:41;;;;;;;33.15;15.70;;;4.00;58.30;;;2.21;65.14;99891.56;8387570;28;20655;-81
2021/12/10 02:03:04;;;;;;;39.83;16.42;;;4.00;58.40;;;2.26;64.87;99888.84;8377701;28;20127;-83
2021/12/10 02:07:27;;;;;;;37.83;17.25;;;4.00;58.30;;;2.21;64.93;99887.28;8391729;28;20568;-82
2021/12/10 02:11:50;;;;;;;35.83;16.98;;;4.10;58.30;;;2.19;64.92;99871.03;8362414;28;20045;-81
2021/12/10 02:16:13;;;;;;;33.88;16.70;;;4.00;58.20;;;2.16;64.72;99858.28;8402813;28;20152;-80
2021/12/10 02:21:10;;;;;;;30.25;14.85;;;4.00;58.20;;;2.21;65.32;99858.97;8388121;28;20134;-80
2021/12/10 02:25:36;;;;;;;35.72;15.43;;;4.00;58.30;;;2.21;65.08;99852.94;8377962;28;20143;-82
2021/12/10 02:29:58;;;;;;;29.45;15.07;;;4.10;58.30;;;2.18;65.18;99851.31;8387515;28;20029;-82
2021/12/10 02:34:22;;;;;;;33.72;15.95;;;4.10;58.30;;;2.14;64.93;99834.31;8380496;28;20122;-82
2021/12/10 02:38:52;;;;;;;33.17;16.63;;;4.10;58.30;;;2.23;64.97;99848.59;8385080;28;20124;-82
2021/12/10 02:43:16;;;;;;;31.02;14.85;;;4.10;58.30;;;2.17;65.29;99839.34;8364540;28;20159;-81
2021/12/10 02:47:38;;;;;;;30.92;16.08;;;4.10;58.30;;;2.18;65.19;99837.59;8361404;28;20115;-82
2021/12/10 02:52:02;;;;;;;32.40;15.18;;;4.10;58.20;;;2.22;65.24;99852.91;8372509;28;20401;-82
2021/12/10 02:56:24;;;;;;;33.13;16.55;;;4.10;58.20;;;2.20;64.84;99830.66;8368470;28;20127;-81
2021/12/10 03:00:54;;;;;;;29.73;15.57;;;4.00;58.20;;;2.15;65.08;99830.81;8371535;28;20125;-82
2021/12/10 03:05:15;;;;;;;28.63;14.93;;;4.00;58.20;;;2.16;65.06;99826.50;8363677;28;20127;-81
2021/12/10 03:09:40;;;;;;;26.30;13.93;;;4.10;58.30;;;2.15;65.11;99819.69;8367987;28;20402;-81
2021/12/10 03:14:08;;;;;;;33.35;14.70;;;4.00;58.20;;;2.17;64.95;99810.19;8364587;28;20123;-81
2021/12/10 03:18:30;;;;;;;29.23;13.98;;;3.90;58.20;;;2.24;64.79;99810.78;8383188;28;20124;-81
2021/12/10 03:22:52;;;;;;;31.98;15.45;;;4.00;58.30;;;2.17;65.09;99787.84;8402894;28;20127;-81
2021/12/10 03:27:15;;;;;;;35.08;16.60;;;4.10;58.80;;;2.14;65.23;99790.53;8387792;28;20123;-82
2021/12/10 03:31:37;;;;;;;35.15;16.63;;;4.10;58.40;;;2.15;65.04;99794.78;8372271;28;20042;-82
2021/12/10 03:35:58;;;;;;;37.50;17.20;;;4.00;58.30;;;2.17;64.78;99787.84;8376322;28;20112;-81
2021/12/10 03:40:20;;;;;;;37.20;16.50;;;4.10;58.30;;;2.17;64.78;99780.09;8385648;28;20127;-81
2021/12/10 03:44:42;;;;;;;36.22;16.60;;;4.00;58.20;;;2.15;64.90;99776.75;8385275;28;20122;-81
2021/12/10 03:49:07;;;;;;;40.58;17.17;;;4.00;58.20;;;2.16;65.28;99775.88;8365798;28;20541;-81
2021/12/10 03:53:29;;;;;;;36.05;16.77;;;4.00;58.30;;;2.12;65.24;99758.00;8385257;28;20131;-82
2021/12/10 03:57:54;;;;;;;36.78;15.63;;;4.00;58.20;;;2.16;65.03;99754.41;8395640;28;20134;-81
2021/12/10 04:02:16;;;;;;;39.43;17.30;;;4.00;58.30;;;2.09;64.88;99743.50;8399129;28;20471;-82
2021/12/10 04:06:37;;;;;;;35.20;16.92;;;4.00;58.30;;;2.09;65.28;99734.94;8395970;28;20118;-80
2021/12/10 04:11:00;;;;;;;34.67;16.63;;;4.00;58.30;;;2.08;65.35;99728.94;8377194;28;20041;-82
2021/12/10 04:15:23;;;;;;;35.53;17.25;;;4.00;58.30;;;2.09;65.04;99732.34;8394526;28;20135;-80
2021/12/10 04:19:41;;;;;;;35.05;16.13;;;4.00;58.40;;;2.15;65.19;99748.41;8332095;28;20053;-84
2021/12/10 04:24:04;;;;;;;35.35;17.13;;;4.00;58.70;;;2.10;65.02;99737.44;8305650;28;20124;-84
2021/12/10 04:28:26;;;;;;;33.15;16.20;;;4.00;58.30;;;2.02;65.02;99726.56;8307940;28;20128;-85
2021/12/10 04:32:47;;;;;;;36.40;16.77;;;4.00;58.30;;;2.12;65.38;99743.38;8318894;28;20132;-84
2021/12/10 04:37:11;;;;;;;34.90;16.05;;;3.90;58.20;;;2.11;65.28;99741.72;8304866;28;20614;-84
2021/12/10 04:41:33;;;;;;;34.88;16.73;;;4.00;58.30;;;2.17;65.41;99744.06;8307922;28;20120;-84
2021/12/10 04:45:57;;;;;;;38.58;17.60;;;4.00;58.30;;;2.11;65.00;99738.31;8301915;28;20133;-85
2021/12/10 04:50:22;;;;;;;39.03;17.27;;;4.00;58.30;;;2.07;65.11;99729.00;8303788;28;20068;-84
2021/12/10 04:54:44;;;;;;;32.97;15.65;;;4.00;58.30;;;2.18;65.01;99744.88;8306273;28;20121;-85
2021/12/10 04:59:12;;;;;;;37.58;16.63;;;4.00;58.30;;;2.03;65.03;99717.97;8299108;28;20124;-84
2021/12/10 05:03:34;;;;;;;34.92;17.23;;;4.00;58.30;;;1.98;64.93;99704.44;8305019;28;20132;-84
2021/12/10 05:07:55;;;;;;;39.13;17.70;;;4.00;58.30;;;2.05;65.39;99705.84;8294229;28;20128;-85
2021/12/10 05:12:17;;;;;;;33.28;16.38;;;4.00;58.40;;;2.16;65.05;99724.34;8317439;28;20041;-85
2021/12/10 05:16:44;;;;;;;32.50;15.40;;;4.00;58.30;;;2.11;65.24;99708.22;8312526;28;20120;-84
2021/12/10 05:21:10;;;;;;;35.83;16.83;;;4.00;58.40;;;2.14;65.15;99700.41;8305159;28;20574;-84
2021/12/10 05:25:32;;;;;;;35.28;16.23;;;4.00;58.50;;;2.19;65.02;99708.78;8298318;28;20124;-84
2021/12/10 05:29:54;;;;;;;36.63;17.67;;;3.90;58.40;;;2.19;65.36;99707.97;8314449;28;20129;-84
2021/12/10 05:34:17;;;;;;;34.97;16.23;;;4.00;58.50;;;2.15;65.39;99691.75;8299317;28;20554;-84
2021/12/10 05:38:39;;;;;;;33.05;15.88;;;4.00;58.40;;;2.19;65.36;99706.22;8279511;28;20188;-84
2021/12/10 05:43:00;;;;;;;33.65;17.00;;;4.00;58.40;;;2.18;64.79;99698.53;8285482;28;20033;-84
2021/12/10 05:47:22;;;;;;;34.72;16.67;;;4.00;58.40;;;2.13;65.37;99703.00;8307604;28;20132;-84
2021/12/10 05:51:44;;;;;;;35.28;16.10;;;4.00;58.30;;;2.12;65.53;99698.78;8282243;28;20056;-84
2021/12/10 05:56:07;;;;;;;32.15;15.85;;;4.00;58.40;;;2.21;65.22;99701.84;8283595;28;20560;-85
2021/12/10 06:00:48;;;;;;;34.78;15.80;;;4.10;58.40;;;2.18;65.02;99699.38;8297831;28;20383;-84
2021/12/10 06:05:11;;;;;;;37.17;17.63;;;4.10;58.50;;;2.24;65.04;99706.03;8298081;28;20045;-84
2021/12/10 06:09:33;;;;;;;38.40;16.45;;;3.90;58.40;;;2.19;65.29;99695.91;8267436;28;20042;-85
2021/12/10 06:13:56;;;;;;;30.85;15.43;;;4.10;58.50;;;2.24;65.14;99690.56;8289892;28;20036;-84
2021/12/10 06:18:17;;;;;;;36.72;16.88;;;4.10;58.50;;;2.24;65.31;99693.13;8283711;28;20448;-84
2021/12/10 06:22:39;;;;;;;38.13;17.15;;;4.10;58.50;;;2.22;65.27;99693.22;8291176;28;20044;-85
2021/12/10 06:27:01;;;;;;;36.00;17.48;;;4.10;58.50;;;2.18;64.88;99685.66;8278512;28;20034;-84
2021/12/10 06:31:24;;;;;;;35.53;17.20;;;4.10;58.40;;;2.21;65.02;99701.00;8292457;28;20046;-82
2021/12/10 06:35:50;;;;;;;36.15;17.88;;;4.00;58.30;;;2.15;65.35;99686.59;8268662;28;20121;-83
2021/12/10 06:40:18;;;;;;;37.38;16.10;;;4.10;58.40;;;2.18;65.00;99695.97;8274433;28;20124;-82
2021/12/10 06:44:48;;;;;;;33.80;16.05;;;4.10;58.40;;;2.20;65.37;99694.16;8279978;28;20039;-81
2021/12/10 06:54:22;;;;;;;33.35;15.30;;;4.10;58.50;;;2.15;65.24;99671.16;8320457;28;20049;-83
2021/12/10 06:58:44;;;;;;;38.65;17.70;;;4.00;58.40;;;2.13;65.18;99666.97;8309473;28;20048;-83
2021/12/10 07:03:06;;;;;;;35.78;16.52;;;4.00;58.40;;;2.18;64.93;99662.47;8327011;28;20051;-83
2021/12/10 07:07:29;;;;;;;34.83;16.92;;;4.00;58.50;;;2.12;65.25;99660.97;8322329;28;20516;-83
2021/12/10 07:11:53;;;;;;;34.95;16.83;;;4.00;58.50;;;2.08;64.99;99643.13;8321038;28;20048;-82
2021/12/10 07:16:16;;;;;;;32.90;17.17;;;4.00;58.50;;;2.18;65.03;99660.72;8338910;28;20561;-83
2021/12/10 07:20:40;;;;;;;42.05;17.63;;;3.90;58.40;;;2.18;65.34;99655.59;8339932;28;20476;-84
2021/12/10 07:25:04;;;;;;;32.28;16.75;;;4.00;58.50;;;2.22;65.52;99656.31;8278500;28;20466;-83
2021/12/10 07:29:26;;;;;;;32.50;16.38;;;4.00;58.50;;;2.13;65.12;99641.22;8327501;28;20030;-84
2021/12/10 07:33:48;;;;;;;41.30;18.30;;;4.00;58.50;;;2.18;65.32;99639.31;8314688;28;20038;-83
2021/12/10 07:38:09;;;;;;;39.42;17.52;;;4.00;58.60;;;2.20;65.16;99643.50;8297129;28;20052;-85
2021/12/10 07:42:31;;;;;;;34.55;16.60;;;4.00;58.60;;;2.26;65.36;99654.47;8324847;28;20128;-86
2021/12/10 07:46:55;;;;;;;36.53;17.30;;;4.10;58.60;;;2.22;65.05;99638.31;8325274;28;20131;-86
2021/12/10 07:51:22;;;;;;;39.58;17.80;;;4.10;58.60;;;2.23;65.24;99642.53;8312650;28;20048;-84
2021/12/10 07:55:44;;;;;;;32.20;15.60;;;4.10;58.50;;;2.28;65.12;99642.38;8330310;28;20040;-86
2021/12/10 08:00:12;;;;;;;36.75;16.48;;;4.10;58.50;;;2.22;65.28;99625.41;8312152;28;20116;-86
2021/12/10 08:04:37;;;;;;;35.45;16.50;;;4.10;58.50;;;2.19;65.27;99616.06;8342605;28;20127;-85
2021/12/10 08:09:03;;;;;;;35.90;17.23;;;4.10;58.50;;;2.26;65.00;99619.25;8315699;28;20495;-82
2021/12/10 08:13:25;;;;;;;39.72;16.67;;;4.10;58.60;;;2.26;65.43;99610.69;8325188;28;20028;-84
2021/12/10 08:17:47;;;;;;;39.28;18.42;;;4.10;58.60;;;2.24;65.23;99603.00;8328699;28;20040;-84
2021/12/10 08:22:09;;;;;;;36.17;16.25;;;4.10;58.60;;;2.28;65.27;99598.59;8315484;28;20116;-83
2021/12/10 08:26:31;;;;;;;37.70;16.63;;;4.10;58.60;;;2.32;65.00;99584.66;8318702;28;20055;-83
2021/12/10 08:30:36;;;;;;;39.05;16.10;;;4.10;58.70;;;2.35;65.28;99584.53;8314810;28;20136;-87
2021/12/10 08:34:39;;;;;;;34.60;16.38;;;4.10;58.70;;;2.31;65.19;99564.97;8309588;28;20048;-83
2021/12/10 08:38:58;;;;;;;39.88;16.88;;;4.20;58.80;;;2.30;65.09;99556.41;8422696;28;20809;-84
2021/12/10 08:43:11;;;;;;;31.70;16.35;;;4.20;58.80;;;2.36;65.38;99557.91;8522261;27;20442;-85
2021/12/10 08:47:25;;;;;;;45.40;19.90;;;4.20;58.80;;;2.33;65.27;99551.13;8570667;27;20466;-86
2021/12/10 08:51:44;;;;;;;43.28;18.83;;;4.20;58.80;;;2.42;65.24;99560.22;8498791;27;20125;-82
2021/12/10 08:55:51;;;;;;;41.95;18.05;;;4.20;58.80;;;2.49;65.34;99566.81;8504464;27;20188;-83
2021/12/10 08:59:54;;;;;;;45.20;18.52;;;4.30;58.80;;;2.44;65.76;99559.25;8515613;27;20110;-80
2021/12/10 09:04:03;;;;;;;39.55;17.58;;;4.30;58.80;;;2.44;65.27;99555.84;8523146;27;20031;-82
2021/12/10 09:08:05;;;;;;;41.00;18.40;;;4.30;58.80;;;2.59;65.23;99572.41;8504389;27;20598;-81
2021/12/10 09:12:23;;;;;;;38.38;18.05;;;4.40;58.90;;;2.60;65.61;99579.25;8521639;27;20440;-81
2021/12/10 09:16:28;;;;;;;40.25;19.75;;;4.40;58.90;;;2.54;65.53;99564.91;8491187;27;20566;-82
2021/12/10 09:20:38;;;;;;;42.83;20.70;;;4.50;59.00;;;2.64;65.76;99594.50;8514392;27;20114;-82
2021/12/10 09:24:41;;;;;;;42.17;19.42;;;4.50;59.00;;;2.67;65.40;99590.97;8483643;27;20452;-80
2021/12/10 09:28:45;;;;;;;41.20;18.73;;;4.40;58.90;;;2.66;65.49;99586.72;8504659;27;20125;-81
2021/12/10 09:32:47;;;;;;;39.10;18.45;;;4.50;59.00;;;2.64;65.79;99573.91;8522191;27;20114;-81
2021/12/10 09:36:50;;;;;;;34.70;18.13;;;4.50;59.00;;;2.68;65.58;99576.38;8498684;27;20023;-81
2021/12/10 09:41:00;;;;;;;44.70;21.08;;;4.50;59.00;;;2.75;65.54;99588.09;8478068;27;20130;-78
2021/12/10 09:45:05;;;;;;;51.30;23.15;;;4.60;59.10;;;2.74;65.46;99576.94;8519635;27;20031;-79
2021/12/10 09:49:10;;;;;;;44.47;20.20;;;4.60;59.10;;;2.69;65.30;99558.25;8520992;27;20458;-80
2021/12/10 09:53:12;;;;;;;43.75;21.40;;;4.60;59.10;;;2.63;65.38;99536.16;8520003;27;20843;-79
2021/12/10 09:57:28;;;;;;;41.97;18.55;;;4.60;59.10;;;2.71;65.47;99540.16;8506458;27;20137;-79
2021/12/10 10:01:35;;;;;;;40.85;18.70;;;4.50;59.10;;;2.75;65.54;99518.50;8494959;27;20110;-80
2021/12/10 10:05:38;;;;;;;42.10;20.48;;;4.60;59.10;;;2.79;65.42;99512.31;8497907;27;20118;-81
2021/12/10 10:09:46;;;;;;;41.00;18.02;;;4.60;59.10;;;2.72;65.55;99513.47;8463703;27;20034;-79
2021/12/10 10:13:51;;;;;;;39.22;17.98;;;4.70;59.20;;;2.85;65.66;99519.78;8487791;27;20130;-79
2021/12/10 10:17:56;;;;;;;31.45;15.73;;;4.70;59.20;;;2.93;65.75;99522.88;8454983;22;20139;-80
2021/12/10 10:21:59;;;;;;;37.00;18.38;;;4.60;59.10;;;2.52;65.61;99445.59;8370377;28;20050;-79
2021/12/10 10:26:07;;;;;;;34.03;16.10;;;4.80;59.20;;;2.92;65.50;99513.47;8414029;28;20308;-80
2021/12/10 10:30:33;;;;;;;37.00;18.50;;;4.80;59.20;;;2.92;65.56;99503.16;8432073;28;20115;-80
2021/12/10 10:34:41;;;;;;;39.75;17.90;;;4.80;59.20;;;2.81;65.58;99485.56;8428556;28;20106;-80
2021/12/10 10:38:47;;;;;;;45.30;21.17;;;4.90;59.10;;;2.73;65.85;99471.31;8411992;28;20198;-80
2021/12/10 10:42:50;;;;;;;48.00;19.35;;;4.70;59.10;;;3.07;65.47;99517.94;8412735;28;20551;-80
2021/12/10 10:46:56;;;;;;;50.35;23.15;;;4.70;59.00;;;3.09;65.79;99517.88;8431362;28;20470;-80
2021/12/10 10:51:11;;;;;;;41.22;19.27;;;4.90;59.10;;;3.02;65.83;99503.56;8409931;28;20584;-80
2021/12/10 10:55:12;;;;;;;44.07;19.37;;;4.80;59.10;;;3.11;65.77;99513.50;8416338;28;20123;-81
2021/12/10 10:59:25;;;;;;;34.80;16.42;;;4.80;59.10;;;2.77;65.44;99449.69;8420893;28;20123;-81
2021/12/10 11:03:56;;;;;;;39.08;18.08;;;4.90;59.10;;;3.05;65.46;99499.13;8406033;28;20194;-80
2021/12/10 11:08:04;;;;;;;35.05;16.83;;;4.90;59.10;;;3.08;65.39;99508.47;8405694;28;20503;-81
2021/12/10 11:12:14;;;;;;;39.25;18.42;;;5.00;59.10;;;3.12;65.55;99509.16;8427803;28;20119;-81
2021/12/10 11:16:22;;;;;;;36.33;17.00;;;5.00;59.10;;;3.15;65.66;99493.56;8413158;28;20107;-81
2021/12/10 11:20:42;;;;;;;35.83;17.08;;;5.00;59.20;;;3.10;65.36;99486.84;8411387;28;20054;-81
2021/12/10 11:25:13;;;;;;;33.78;16.10;;;4.70;59.10;;;3.15;65.84;99483.25;8409604;28;20567;-81
2021/12/10 11:29:35;;;;;;;30.33;15.68;;;5.00;59.20;;;3.28;65.74;99511.00;8422935;28;20122;-81
2021/12/10 11:33:50;;;;;;;33.45;16.52;;;5.00;59.20;;;3.25;65.83;99500.81;8428300;28;20119;-82
2021/12/10 11:38:07;;;;;;;34.90;17.45;;;5.10;59.20;;;3.18;65.62;99483.09;8410495;28;20118;-82
2021/12/10 11:42:36;;;;;;;42.85;20.13;;;5.10;59.20;;;3.32;66.04;99506.53;8406374;28;20119;-81
2021/12/10 11:51:04;;;;;;;32.95;16.05;;;5.10;59.30;;;3.31;65.59;99497.94;8423482;28;20194;-81
2021/12/10 11:55:09;;;;;;;32.53;14.80;;;5.10;59.20;;;3.25;65.43;99487.91;8423426;28;20123;-81
2021/12/10 11:59:19;;;;;;;32.83;16.02;;;5.10;59.30;;;3.29;65.74;99493.78;8426001;28;20127;-81
2021/12/10 12:03:27;;;;;;;33.67;14.27;;;5.10;59.30;;;3.36;65.62;99497.75;8433834;28;20575;-81
2021/12/10 12:07:38;;;;;;;26.98;13.88;;;5.20;59.30;;;2.99;65.72;99432.34;8423687;28;20115;-81
2021/12/10 12:11:40;;;;;;;28.73;13.73;;;5.10;59.30;;;3.17;65.47;99458.22;8429384;28;20118;-81
2021/12/10 12:15:50;;;;;;;29.17;13.15;;;5.20;59.40;;;3.42;65.87;99487.16;8404717;28;20054;-81
2021/12/10 12:19:52;;;;;;;27.52;12.98;;;5.20;59.40;;;3.36;65.81;99468.53;8371358;28;20139;-81
2021/12/10 12:28:30;;;;;;;27.65;13.95;;;5.30;59.40;;;3.48;65.75;99473.97;8431430;28;20313;-82
2021/12/10 12:32:41;;;;;;;28.17;13.75;;;5.30;59.40;;;3.46;65.85;99467.22;8423637;28;20270;-82
2021/12/10 12:37:01;;;;;;;27.33;12.90;;;5.30;59.30;;;3.51;65.78;99471.25;8426215;28;20176;-81
2021/12/10 12:41:22;;;;;;;28.33;13.82;;;5.30;59.30;;;3.55;65.99;99472.78;8424077;28;20154;-81
2021/12/10 12:45:26;;;;;;;24.25;12.00;;;5.30;59.30;;;3.53;65.91;99453.94;8422304;28;20126;-82
2021/12/10 12:49:37;;;;;;;26.08;12.73;;;5.20;59.20;;;3.58;65.64;99458.06;8424484;28;20115;-82
2021/12/10 12:53:38;;;;;;;31.73;14.07;;;5.30;59.30;;;3.51;65.83;99460.94;8406632;28;20111;-82
2021/12/10 12:57:51;;;;;;;27.10;13.02;;;5.40;59.30;;;3.15;65.88;99390.38;8420098;28;20171;-82
2021/12/10 13:01:59;;;;;;;27.35;12.13;;;5.40;59.30;;;3.61;65.67;99466.47;8403508;28;20139;-82
2021/12/10 13:06:18;;;;;;;26.08;12.65;;;5.40;59.20;;;3.44;65.83;99423.41;8403819;28;20123;-82
2021/12/10 13:10:21;;;;;;;32.28;13.95;;;5.30;59.20;;;3.61;65.75;99445.00;8424940;28;20119;-82
2021/12/10 13:14:31;;;;;;;30.23;14.30;;;5.30;59.20;;;3.39;65.82;99419.38;8424499;28;20107;-82
2021/12/10 13:18:32;;;;;;;26.63;12.20;;;5.40;59.20;;;3.48;65.78;99444.75;8404660;28;20107;-81
2021/12/10 13:22:34;;;;;;;31.35;15.38;;;5.40;59.30;;;3.38;65.86;99431.44;8406678;28;20115;-82
2021/12/10 13:26:36;;;;;;;30.02;13.70;;;5.30;59.30;;;3.35;65.86;99433.31;8427709;28;20549;-81
2021/12/10 13:30:48;;;;;;;32.72;14.00;;;5.40;59.30;;;3.60;65.80;99482.06;8408486;28;20135;-81
2021/12/10 13:34:49;;;;;;;30.67;12.80;;;5.10;59.20;;;3.46;65.66;99457.72;8422670;28;20107;-81
2021/12/10 13:38:53;;;;;;;27.20;14.27;;;5.30;59.20;;;3.36;65.85;99446.16;8402091;28;20122;-80
2021/12/10 13:42:55;;;;;;;31.30;13.35;;;5.10;59.20;;;3.55;65.89;99487.44;8412662;28;20111;-80
2021/12/10 13:47:07;;;;;;;33.95;14.50;;;5.30;59.20;;;3.48;65.86;99475.69;8435831;28;20120;-80
2021/12/10 13:51:16;;;;;;;38.15;17.10;;;5.30;59.30;;;3.58;65.25;99486.44;8425376;28;20115;-80
2021/12/10 13:55:27;;;;;;;29.35;13.35;;;5.10;59.30;;;3.49;65.67;99478.22;8429964;28;20453;-81
2021/12/10 13:59:33;;;;;;;29.20;12.70;;;5.30;59.30;;;3.37;65.91;99463.28;8410397;28;20461;-80
2021/12/10 14:03:51;;;;;;;29.90;13.82;;;5.30;59.30;;;3.55;65.72;99501.16;8419010;28;20122;-80
2021/12/10 14:08:22;;;;;;;29.73;14.10;;;5.30;59.40;;;3.56;65.65;99499.41;8422236;28;20128;-80
2021/12/10 14:12:42;;;;;;;26.35;12.38;;;5.20;59.50;;;3.57;65.64;99505.44;8413059;28;20050;-85
2021/12/10 14:16:50;;;;;;;24.55;11.35;;;5.30;59.40;;;3.51;65.83;99497.06;8409529;28;20118;-80
2021/12/10 14:21:05;;;;;;;26.90;13.63;;;5.10;59.30;;;3.54;65.88;99504.66;8403365;28;20115;-80
2021/12/10 14:25:36;;;;;;;31.60;12.40;;;5.30;59.40;;;3.46;65.63;99490.44;8436606;28;20038;-82
2021/12/10 14:29:38;;;;;;;29.88;12.52;;;5.20;59.30;;;3.23;65.82;99453.59;8407074;28;20051;-82
2021/12/10 14:33:46;;;;;;;27.67;12.18;;;5.30;59.30;;;3.52;65.63;99503.88;8428029;28;20034;-81
2021/12/10 14:38:01;;;;;;;30.65;12.60;;;5.30;59.30;;;3.49;65.55;99506.63;8413294;28;20047;-82
2021/12/10 14:42:13;;;;;;;30.42;13.57;;;5.40;59.30;;;3.35;65.85;99474.59;8404205;28;20127;-81
2021/12/10 14:46:28;;;;;;;28.77;13.80;;;5.40;59.40;;;3.61;65.70;99514.69;8427495;28;20043;-81
2021/12/10 14:50:32;;;;;;;22.27;11.70;;;5.30;59.30;;;3.51;65.63;99511.69;8428032;28;20114;-81
2021/12/10 14:55:00;;;;;;;30.92;13.50;;;5.40;59.40;;;3.47;65.94;99511.00;8426968;28;20028;-81
2021/12/10 14:59:20;;;;;;;32.53;14.50;;;5.30;59.30;;;3.58;65.90;99525.16;8423822;28;20127;-81
2021/12/10 15:03:44;;;;;;;33.33;14.07;;;5.30;59.30;;;3.51;65.95;99516.84;8422873;28;20111;-83
2021/12/10 15:07:47;;;;;;;26.85;12.43;;;5.40;59.40;;;3.58;65.69;99532.91;8425865;28;20115;-81
2021/12/10 15:11:59;;;;;;;29.92;14.23;;;5.40;59.40;;;3.51;66.02;99533.19;8431815;28;20111;-81
2021/12/10 15:16:32;;;;;;;31.15;14.82;;;5.30;59.40;;;3.49;65.68;99532.41;8429898;28;20452;-81
2021/12/10 15:20:33;;;;;;;31.23;13.50;;;5.40;59.40;;;3.46;65.72;99529.16;8410060;28;20119;-81
2021/12/10 15:24:44;;;;;;;30.08;13.05;;;5.40;59.40;;;3.58;65.72;99548.41;8429027;28;20123;-81
2021/12/10 15:28:46;;;;;;;26.48;13.38;;;5.40;59.40;;;3.69;65.64;99567.63;8411958;28;20118;-81
2021/12/10 15:32:59;;;;;;;31.95;13.85;;;5.40;59.70;;;3.56;65.65;99545.88;8420347;28;20118;-81
2021/12/10 15:37:06;;;;;;;34.45;15.85;;;5.20;59.30;;;3.49;65.67;99534.16;8411198;28;20111;-83
2021/12/10 15:41:15;;;;;;;26.10;12.70;;;5.50;59.30;;;3.59;65.77;99550.06;8402926;28;20118;-80
2021/12/10 15:45:21;;;;;;;27.02;13.10;;;5.40;59.30;;;3.68;65.76;99570.31;8430652;28;20043;-81
2021/12/10 15:49:27;;;;;;;30.00;13.30;;;5.50;59.30;;;3.70;65.80;99576.22;8426385;28;20107;-81
2021/12/10 15:53:46;;;;;;;32.05;13.40;;;5.40;59.30;;;3.47;65.93;99536.81;8427853;28;20110;-80
2021/12/10 15:57:48;;;;;;;27.33;12.88;;;5.40;59.30;;;3.60;65.78;99569.81;8415262;28;20119;-81
2021/12/10 16:01:52;;;;;;;33.22;13.43;;;5.40;59.20;;;3.44;65.61;99539.53;8433461;28;20123;-81
2021/12/10 16:06:01;;;;;;;30.40;12.90;;;5.30;59.10;;;3.58;65.81;99561.31;8384378;28;20040;-81
2021/12/10 16:10:32;;;;;;;26.52;12.80;;;5.40;59.20;;;3.63;65.51;99580.84;8433068;28;20115;-81
2021/12/10 16:14:36;;;;;;;28.20;14.05;;;5.40;59.30;;;3.58;65.47;99571.63;8423947;28;20119;-81
2021/12/10 16:18:44;;;;;;;23.85;12.00;;;5.40;59.60;;;3.63;65.79;99572.25;8428986;28;20552;-81
2021/12/10 16:22:47;;;;;;;26.77;11.32;;;5.40;59.30;;;3.68;65.60;99590.97;8424941;28;20119;-80
2021/12/10 16:27:00;;;;;;;29.35;12.38;;;5.30;59.20;;;3.60;65.71;99585.31;8416829;28;20115;-81
2021/12/10 16:31:11;;;;;;;28.50;12.35;;;5.40;59.20;;;3.44;65.91;99564.50;8408150;28;20115;-81
2021/12/10 16:35:20;;;;;;;34.05;13.77;;;5.40;59.20;;;3.29;65.78;99547.94;8410242;28;20118;-81
2021/12/10 16:39:22;;;;;;;23.60;11.07;;;5.40;59.60;;;3.61;66.08;99607.63;8425363;28;20119;-81
2021/12/10 16:43:24;;;;;;;27.33;12.00;;;5.40;59.30;;;3.20;65.71;99536.28;8406634;28;20557;-83
2021/12/10 16:47:29;;;;;;;24.17;11.30;;;5.40;59.30;;;3.66;65.68;99611.66;8412368;28;20501;-81
2021/12/10 16:51:37;;;;;;;27.30;12.38;;;5.40;59.30;;;3.65;65.60;99612.59;8407048;28;20135;-81
2021/12/10 16:55:39;;;;;;;25.80;12.38;;;5.40;59.20;;;3.53;65.70;99588.13;8411723;28;20134;-82
2021/12/10 16:59:42;;;;;;;27.50;14.20;;;5.50;59.30;;;3.66;65.71;99608.25;8407516;28;20119;-82
2021/12/10 17:03:44;;;;;;;22.27;12.10;;;5.30;59.20;;;3.61;65.49;99616.19;8431294;28;20114;-82
2021/12/10 17:07:50;;;;;;;23.45;11.60;;;5.30;59.10;;;3.44;65.67;99582.56;8428979;28;20036;-83
2021/12/10 17:11:55;;;;;;;;;;;5.40;59.10;;;3.40;65.72;99591.34;8415383;28;20158;-83
2021/12/10 17:15:58;;;;;;;18.02;8.45;;;5.40;59.20;;;3.40;65.82;99605.06;8415826;28;19912;-82
2021/12/10 17:20:25;;;;;;;18.20;9.82;;;5.40;59.10;;;3.32;65.66;99595.09;8435501;28;20115;-82
2021/12/10 17:24:34;;;;;;;24.15;11.63;;;5.30;59.10;;;3.55;66.01;99632.78;8413389;28;20114;-90
2021/12/10 17:28:44;;;;;;;22.00;10.50;;;5.00;59.00;;;3.48;65.83;99621.09;8412806;28;20124;-89
2021/12/10 17:32:47;;;;;;;25.45;11.57;;;5.30;59.20;;;3.52;65.99;99626.94;8403993;28;20123;-89
2021/12/10 17:36:54;;;;;;;22.85;11.60;;;5.30;59.20;;;3.58;65.65;99638.72;8408997;28;20143;-88
2021/12/10 17:41:08;;;;;;;22.50;11.55;;;5.30;59.20;;;3.60;66.01;99649.84;8396568;28;20551;-89
2021/12/10 17:45:20;;;;;;;23.75;11.43;;;5.40;59.20;;;3.39;65.93;99618.06;8417042;28;20540;-88
2021/12/10 17:49:31;;;;;;;25.42;11.55;;;5.40;59.20;;;3.59;65.68;99661.88;8397937;28;20133;-89
2021/12/10 17:53:37;;;;;;;26.35;11.80;;;5.30;59.10;;;3.50;65.57;99655.38;8395689;28;20467;-89
2021/12/10 17:57:50;;;;;;;24.02;11.88;;;5.20;59.10;;;3.31;65.61;99628.69;8401277;28;20122;-89
2021/12/10 18:02:05;;;;;;;25.63;12.48;;;5.30;59.20;;;3.38;66.11;99640.44;8375248;28;20118;-89
2021/12/10 18:06:12;;;;;;;29.10;12.07;;;5.30;59.20;;;3.57;65.63;99668.03;8434032;28;20391;-88
2021/12/10 18:10:21;;;;;;;24.73;12.60;;;5.30;59.30;;;3.53;65.85;99665.56;8413156;28;20118;-88
2021/12/10 18:14:39;;;;;;;28.27;12.60;;;5.30;59.30;;;3.53;66.03;99686.22;8411832;28;20103;-88
2021/12/10 18:18:42;;;;;;;26.30;11.73;;;5.30;59.30;;;3.52;65.75;99691.47;8429068;28;20118;-88
2021/12/10 18:23:13;;;;;;;22.02;10.65;;;5.20;59.20;;;3.62;65.99;99709.94;8407554;28;20158;-87